Baker, MT (59313)

12:20 PM MDT on March 23, 2017 (GMT -0600)
Baker Municipal | | Change Station

Elev 2972 ft 46.35 °N, 104.26 °W | Updated 29 minutes ago

Rain
Rain
45 °F
Feels Like 41 °F
N
7
Wind Variable Wind from West

Today
High -- | Low -- °F
--% Chance of Precip.
Yesterday
High -- | Low -- °F
Precip. -- in
Pressure 29.81 in
Visibility 10.0 miles
Clouds Mostly Cloudy 4300 ft
Overcast 5000 ft
Windchill 41 °F
Dew Point 41 °F
Humidity 86%
Rainfall 0.05 in
Snow Depth Not available.
6:53 AM 7:14 PM
Waning Crescent, 21% visible
METAR KBHK 231751Z AUTO 28006KT 10SM -RA BKN043 OVC050 07/05 A2978 RMK AO2 SLP094 P0002 60005 T00720050 10094 20061 50018
Pressure 29.81 in
Visibility 10.0 miles
Clouds Mostly Cloudy 4300 ft
Overcast 5000 ft
Windchill 41 °F
Dew Point 41 °F
Humidity 86%
Rainfall 0.05 in
Snow Depth Not available.
6:53 AM 7:14 PM
Waning Crescent, 21% visible
METAR KBHK 231751Z AUTO 28006KT 10SM -RA BKN043 OVC050 07/05 A2978 RMK AO2 SLP094 P0002 60005 T00720050 10094 20061 50018

Get Severe Weather Alerts

Thanks for signing up!

Be on the lookout for a verification email in your inbox.

You'll start receiving the daily forecast at 8 AM.

×

10-Day Weather Forecast

Almanac

Astronomy

Mar. 23, 2017 Rise Set
Actual Time
Civil Twilight
Nautical Twilight
Astronomical Twilight
Moon
Length of Visible Light
Length of Day
Tomorrow will be .
, % of the Moon is Illuminated

Today's Extremes

State Highs State Lows

Community

WunderPhotos

Upload Photos

1,962,540 photos uploaded!

WunderBlog® & News

Nearby

Air Quality

  Air Quality AQ Index Pollutant
Not available.

Snow Depth

Station Depth Elevation

Earthquake Activity

City Distance Mag. Time & Date
Minimum magnitude displayed is 2.5.

Earthquake Activity

City Distance Mag. Time & Date
Minimum magnitude displayed is 2.5.

Coastal Water Temperatures

Place Temperature

Stations

Nearby Weather Stations

Station Location Temp. Windchill Dew Point Humidity Wind Precip. Elev Updated Type
                   

Watches & Warnings

There are currently no watches in effect.